Time;durP1;ratioP1;P1;durP2;ratioP2;P2;SDS_P1;SDS_P2;PMS_P1;PMS_P2;Temp;Humidity;BMP_temperature;BMP_pressure;BME280_temperature;BME280_humidity;BME280_pressure;Samples;Min_cycle;Max_cycle;Signal;HPM_P1;HPM_P2
2021/09/10 00:01:45;;;;;;;30.23;18.33;;;;;;;19.99;100.00;-19684.44;5022803;28;20104;-68
2021/09/10 00:04:11;;;;;;;33.38;18.38;;;;;;;19.94;100.00;-19683.28;5022893;28;20649;-68
2021/09/10 00:06:36;;;;;;;32.92;19.38;;;;;;;19.95;100.00;-19683.41;5023275;28;20033;-68
2021/09/10 00:09:02;;;;;;;34.78;18.65;;;;;;;19.92;100.00;-19682.75;5023508;28;20013;-68
2021/09/10 00:11:27;;;;;;;35.30;19.40;;;;;;;19.94;100.00;-19683.13;5022988;28;20327;-68
2021/09/10 00:13:53;;;;;;;35.45;19.35;;;;;;;19.95;100.00;-19683.41;5023225;28;20060;-68
2021/09/10 00:16:18;;;;;;;34.25;19.65;;;;;;;19.95;100.00;-19683.41;5022614;28;20439;-68
2021/09/10 00:18:44;;;;;;;35.47;20.65;;;;;;;19.88;100.00;-19681.84;5023188;28;20029;-68
2021/09/10 00:21:09;;;;;;;38.30;19.90;;;;;;;19.85;100.00;-19681.06;5022592;28;20025;-68
2021/09/10 00:23:35;;;;;;;36.75;20.20;;;;;;;19.78;100.00;-19679.13;5022957;28;20079;-68
2021/09/10 00:26:00;;;;;;;37.40;20.85;;;;;;;19.62;100.00;-19675.06;5022762;28;20144;-68
2021/09/10 00:28:26;;;;;;;36.63;21.13;;;;;;;19.54;100.00;-19673.00;5022756;28;20182;-68
2021/09/10 00:30:52;;;;;;;37.63;21.02;;;;;;;19.51;100.00;-19672.22;5022801;28;20045;-68
2021/09/10 00:33:18;;;;;;;37.50;21.88;;;;;;;19.53;100.00;-19672.72;5022618;28;20072;-68
2021/09/10 00:35:43;;;;;;;40.10;22.08;;;;;;;19.53;100.00;-19672.72;5022185;28;20056;-68
2021/09/10 00:38:09;;;;;;;42.75;22.60;;;;;;;19.55;100.00;-19673.38;5022626;28;20325;-68
2021/09/10 00:40:34;;;;;;;44.08;22.20;;;;;;;19.54;100.00;-19673.13;5022298;28;20467;-68
2021/09/10 00:43:00;;;;;;;41.08;23.27;;;;;;;19.57;100.00;-19673.78;5022734;28;20108;-68
2021/09/10 00:45:26;;;;;;;40.92;23.92;;;;;;;19.61;100.00;-19674.81;5022398;28;20029;-68
2021/09/10 00:47:51;;;;;;;44.05;23.98;;;;;;;19.64;100.00;-19675.59;5022739;28;20025;-68
2021/09/10 00:50:18;;;;;;;48.60;24.95;;;;;;;19.66;100.00;-19676.13;5022810;28;20058;-68
2021/09/10 00:52:43;;;;;;;49.08;26.02;;;;;;;19.67;100.00;-19676.38;5022573;28;20029;-68
2021/09/10 00:55:09;;;;;;;48.20;25.20;;;;;;;19.65;100.00;-19675.84;5022415;28;20177;-68
2021/09/10 00:57:35;;;;;;;48.08;24.63;;;;;;;19.64;100.00;-19675.59;5022976;28;20100;-68
2021/09/10 01:00:01;;;;;;;43.17;24.55;;;;;;;19.64;100.00;-19675.59;5022227;28;20052;-68
2021/09/10 01:02:26;;;;;;;50.38;25.65;;;;;;;19.67;100.00;-19676.25;5020803;28;20060;-68
2021/09/10 01:04:54;;;;;;;41.35;23.20;;;;;;;19.61;100.00;-19674.94;5021856;28;20059;-68
2021/09/10 01:07:19;;;;;;;43.25;23.10;;;;;;;19.62;100.00;-19675.06;5021104;28;20235;-68
2021/09/10 01:09:46;;;;;;;41.70;23.45;;;;;;;19.55;100.00;-19673.25;5022264;28;20633;-68
2021/09/10 01:12:12;;;;;;;44.85;23.75;;;;;;;19.45;100.00;-19670.78;5022383;28;20029;-68
2021/09/10 01:14:37;;;;;;;45.10;23.55;;;;;;;19.39;100.00;-19669.09;5022311;28;20022;-68
2021/09/10 01:17:03;;;;;;;40.35;23.17;;;;;;;19.36;100.00;-19668.31;5022062;28;20086;-68
2021/09/10 01:19:31;;;;;;;43.28;24.35;;;;;;;19.32;100.00;-19667.53;5025129;28;20036;-68
2021/09/10 01:21:59;;;;;;;49.05;25.17;;;;;;;19.30;100.00;-19667.00;5021890;28;20021;-68
2021/09/10 01:25:04;;;;;;;50.38;25.90;;;;;;;19.28;100.00;-19666.47;5021750;28;20325;-68
2021/09/10 01:27:29;;;;;;;47.70;25.83;;;;;;;19.22;100.00;-19664.91;4960541;28;20319;-68
2021/09/10 01:29:57;;;;;;;55.75;27.35;;;;;;;19.23;100.00;-19665.19;4959986;28;20042;-68
2021/09/10 01:32:22;;;;;;;47.03;25.73;;;;;;;19.27;100.00;-19666.22;4960093;28;20039;-68
2021/09/10 01:34:48;;;;;;;49.25;26.52;;;;;;;19.26;100.00;-19665.97;4959989;28;20116;-68
2021/09/10 01:37:13;;;;;;;48.60;27.05;;;;;;;19.20;100.00;-19664.41;4960002;28;20042;-68
2021/09/10 01:39:39;;;;;;;48.78;26.20;;;;;;;19.12;100.00;-19662.31;4963539;28;20573;-68
2021/09/10 01:42:04;;;;;;;50.90;28.13;;;;;;;19.11;100.00;-19661.94;4979468;28;20387;-68
2021/09/10 01:44:30;;;;;;;50.97;27.58;;;;;;;19.07;100.00;-19661.00;4978917;28;20328;-68
2021/09/10 01:46:56;;;;;;;55.33;28.10;;;;;;;19.08;100.00;-19661.16;4979482;28;20434;-68
2021/09/10 01:49:21;;;;;;;50.55;27.23;;;;;;;19.09;100.00;-19661.53;4978845;28;20174;-68
2021/09/10 01:51:46;;;;;;;60.80;27.57;;;;;;;19.06;100.00;-19660.75;4978951;28;20589;-69
2021/09/10 01:54:12;;;;;;;53.63;26.80;;;;;;;19.02;100.00;-19659.72;4978546;28;20122;-68
2021/09/10 01:56:37;;;;;;;58.20;27.02;;;;;;;18.94;100.00;-19657.63;4978482;28;20423;-69
2021/09/10 01:59:03;;;;;;;58.70;29.07;;;;;;;18.89;100.00;-19656.31;4978688;28;20038;-68
2021/09/10 02:01:33;;;;;;;64.97;27.37;;;;;;;18.87;100.00;-19655.81;4977840;28;20506;-68
2021/09/10 02:03:59;;;;;;;60.70;29.97;;;;;;;18.84;100.00;-19655.16;5000349;28;20044;-68
2021/09/10 02:06:25;;;;;;;65.43;29.97;;;;;;;18.91;100.00;-19656.84;5040346;28;20382;-68
2021/09/10 02:08:50;;;;;;;60.93;28.43;;;;;;;18.92;100.00;-19657.09;5040991;28;20037;-68
2021/09/10 02:11:16;;;;;;;61.57;29.23;;;;;;;18.86;100.00;-19655.53;5040385;28;20049;-68
2021/09/10 02:13:41;;;;;;;60.17;27.73;;;;;;;18.81;100.00;-19654.38;5040743;28;20035;-68
2021/09/10 02:16:08;;;;;;;60.30;27.70;;;;;;;18.81;100.00;-19654.25;5040021;28;20429;-68
2021/09/10 02:18:34;;;;;;;65.03;29.00;;;;;;;18.82;100.00;-19654.63;5040535;28;20426;-68
2021/09/10 02:21:00;;;;;;;60.90;29.13;;;;;;;18.79;100.00;-19653.72;5023590;28;20060;-68
2021/09/10 02:23:25;;;;;;;58.38;28.85;;;;;;;18.75;100.00;-19652.81;5021333;28;20490;-68
2021/09/10 02:25:51;;;;;;;70.97;30.07;;;;;;;18.77;100.00;-19653.19;5020561;28;20028;-68
2021/09/10 02:28:16;;;;;;;66.77;30.17;;;;;;;18.76;100.00;-19652.94;5020417;28;20026;-68
2021/09/10 02:30:42;;;;;;;66.70;31.40;;;;;;;18.77;100.00;-19653.19;5020233;28;20269;-68
2021/09/10 02:33:07;;;;;;;67.07;29.47;;;;;;;18.76;100.00;-19652.94;5020496;28;20040;-68
2021/09/10 02:35:33;;;;;;;71.53;29.48;;;;;;;18.73;100.00;-19652.41;5020116;28;20265;-68
2021/09/10 02:38:02;;;;;;;68.03;30.13;;;;;;;18.71;100.00;-19651.91;5020304;28;20108;-68
2021/09/10 02:40:30;;;;;;;67.17;29.97;;;;;;;18.68;100.00;-19651.13;5021033;28;20164;-68
2021/09/10 02:42:56;;;;;;;64.90;28.90;;;;;;;18.66;100.00;-19650.47;5020231;28;20036;-68
2021/09/10 02:45:21;;;;;;;68.03;30.58;;;;;;;18.66;100.00;-19650.47;5020221;28;20087;-68
2021/09/10 02:47:47;;;;;;;68.27;30.07;;;;;;;18.63;100.00;-19649.81;5020378;28;20265;-68
2021/09/10 02:50:13;;;;;;;71.67;30.27;;;;;;;18.65;100.00;-19650.34;5019721;28;20075;-68
2021/09/10 02:52:38;;;;;;;71.30;30.73;;;;;;;18.60;100.00;-19649.03;5020014;28;20385;-68
2021/09/10 02:55:07;;;;;;;70.27;29.67;;;;;;;18.55;100.00;-19647.72;5020102;28;20025;-68
2021/09/10 02:57:33;;;;;;;62.67;28.77;;;;;;;18.55;100.00;-19647.72;5020311;28;20449;-68
2021/09/10 02:59:58;;;;;;;68.67;30.77;;;;;;;18.56;100.00;-19648.00;5019823;28;20112;-68
2021/09/10 03:02:24;;;;;;;77.23;30.43;;;;;;;18.56;100.00;-19648.00;5020018;28;20049;-68
2021/09/10 03:04:49;;;;;;;84.37;32.23;;;;;;;18.58;100.00;-19648.50;5020077;28;20168;-68
2021/09/10 03:07:17;;;;;;;93.93;33.77;;;;;;;18.56;100.00;-19648.00;5019470;28;20077;-68
2021/09/10 03:09:43;;;;;;;84.87;31.60;;;;;;;18.51;100.00;-19646.56;5019268;28;20360;-68
2021/09/10 03:12:08;;;;;;;90.77;34.47;;;;;;;18.47;100.00;-19645.50;5019585;28;20039;-68
2021/09/10 03:14:34;;;;;;;93.33;33.37;;;;;;;18.45;100.00;-19645.25;5019090;28;20057;-68
2021/09/10 03:17:00;;;;;;;97.70;34.57;;;;;;;18.42;100.00;-19644.34;5019632;28;20083;-67
2021/09/10 03:19:26;;;;;;;119.30;37.23;;;;;;;18.51;100.00;-19646.56;5019136;28;20026;-68
2021/09/10 03:21:52;;;;;;;92.43;33.80;;;;;;;18.44;100.00;-19644.84;5019514;28;20584;-68
2021/09/10 03:24:18;;;;;;;97.43;34.67;;;;;;;18.44;100.00;-19645.00;5019235;28;20049;-68
2021/09/10 03:26:44;;;;;;;101.20;35.10;;;;;;;18.42;100.00;-19644.34;5019108;28;20289;-67
2021/09/10 03:29:11;;;;;;;97.27;35.10;;;;;;;18.40;100.00;-19643.81;5019011;28;20029;-68
2021/09/10 03:31:37;;;;;;;92.77;32.63;;;;;;;18.36;100.00;-19642.91;5021681;28;20109;-68
2021/09/10 03:34:02;;;;;;;91.67;32.40;;;;;;;18.32;100.00;-19641.72;5023265;28;20183;-68
2021/09/10 03:36:28;;;;;;;94.07;32.53;;;;;;;18.28;100.00;-19640.81;5023141;28;20458;-67
2021/09/10 03:38:54;;;;;;;99.83;35.17;;;;;;;18.34;100.00;-19642.25;5022973;28;20280;-68
2021/09/10 03:41:19;;;;;;;101.53;34.17;;;;;;;18.34;100.00;-19642.38;5023015;28;20056;-68
2021/09/10 03:43:49;;;;;;;114.87;36.57;;;;;;;18.35;100.00;-19642.50;5023169;28;20486;-68
2021/09/10 03:46:14;;;;;;;104.67;34.70;;;;;;;18.37;100.00;-19643.03;5023020;28;20116;-68
2021/09/10 03:48:40;;;;;;;90.07;32.93;;;;;;;18.45;100.00;-19645.13;5023213;28;20615;-68
2021/09/10 03:51:05;;;;;;;89.03;33.30;;;;;;;18.44;100.00;-19644.84;5022666;28;20057;-68
2021/09/10 03:53:31;;;;;;;89.97;33.70;;;;;;;18.38;100.00;-19643.44;5023158;28;20025;-68
2021/09/10 03:55:57;;;;;;;93.67;33.80;;;;;;;18.37;100.00;-19643.03;5022886;28;20037;-68
2021/09/10 03:58:22;;;;;;;89.37;34.23;;;;;;;18.36;100.00;-19642.78;5022984;28;20030;-68
2021/09/10 04:00:48;;;;;;;92.10;34.30;;;;;;;18.33;100.00;-19642.00;5022548;28;20033;-68
2021/09/10 04:03:13;;;;;;;107.47;34.63;;;;;;;18.35;100.00;-19642.50;5022637;28;20045;-68
2021/09/10 04:05:39;;;;;;;94.73;34.13;;;;;;;18.37;100.00;-19643.03;5022259;28;20108;-68
2021/09/10 04:08:04;;;;;;;105.70;35.97;;;;;;;18.40;100.00;-19643.94;5022751;28;20025;-68
2021/09/10 04:10:30;;;;;;;116.40;36.50;;;;;;;18.41;100.00;-19644.22;5022730;28;20033;-68
2021/09/10 04:12:56;;;;;;;109.83;35.73;;;;;;;18.44;100.00;-19644.84;5022628;28;20542;-68
2021/09/10 04:15:21;;;;;;;99.30;36.20;;;;;;;18.38;100.00;-19643.28;5022447;28;20025;-68
2021/09/10 04:17:47;;;;;;;102.70;35.30;;;;;;;18.43;100.00;-19644.72;5022645;28;20524;-68
2021/09/10 04:20:13;;;;;;;106.10;35.83;;;;;;;18.49;100.00;-19646.03;5022374;28;20110;-68
2021/09/10 04:22:41;;;;;;;107.70;36.60;;;;;;;18.50;100.00;-19646.28;5022498;28;20618;-68
2021/09/10 04:25:07;;;;;;;93.80;36.63;;;;;;;18.45;100.00;-19645.13;5021981;28;20470;-68
2021/09/10 04:27:33;;;;;;;105.13;36.10;;;;;;;18.37;100.00;-19643.03;5022376;28;20593;-68
2021/09/10 04:29:59;;;;;;;100.43;33.87;;;;;;;18.34;100.00;-19642.25;5021851;28;20059;-68
2021/09/10 04:32:25;;;;;;;101.00;34.87;;;;;;;18.33;100.00;-19642.00;5022257;28;20084;-68
2021/09/10 04:34:51;;;;;;;99.40;33.00;;;;;;;18.35;100.00;-19642.50;5022080;28;20029;-68
2021/09/10 04:37:16;;;;;;;96.88;33.17;;;;;;;18.36;100.00;-19372.59;5022115;28;20091;-68
2021/09/10 04:39:42;;;;;;;112.40;35.50;;;;;;;18.41;100.00;-19235.88;5021765;28;20033;-68
2021/09/10 04:42:08;;;;;;;119.57;37.15;;;;;;;18.47;100.00;-18764.47;5021965;28;20614;-68
2021/09/10 04:44:34;;;;;;;134.07;37.07;;;;;;;18.47;100.00;-18284.03;5021898;28;20072;-68
2021/09/10 04:46:59;;;;;;;112.33;35.43;;;;;;;18.42;100.00;-18155.16;5021959;28;20063;-68
2021/09/10 04:49:25;;;;;;;112.57;36.73;;;;;;;18.43;100.00;-18111.81;5021878;28;20021;-68
2021/09/10 04:51:50;;;;;;;112.47;35.17;;;;;;;18.38;100.00;-18744.50;5022090;28;20105;-67
2021/09/10 04:54:16;;;;;;;110.13;34.10;;;;;;;18.34;100.00;-18896.81;5021994;28;20037;-67
2021/09/10 04:56:43;;;;;;;119.78;35.17;;;;;;;18.42;100.00;-18229.16;5021892;28;20091;-67
2021/09/10 04:59:09;;;;;;;124.40;37.10;;;;;;;18.42;100.00;-17388.09;5021581;28;20275;-68
2021/09/10 05:01:34;;;;;;;138.63;38.03;;;;;;;18.41;100.00;-16740.91;5021758;28;20490;-68
2021/09/10 05:04:00;;;;;;;121.33;35.30;;;;;;;18.35;100.00;-16146.34;5021491;28;20056;-68
2021/09/10 05:06:25;;;;;;;249.53;41.63;;;;;;;18.34;100.00;-15258.69;5021613;28;20056;-68
2021/09/10 05:08:51;;;;;;;154.97;39.17;;;;;;;18.31;100.00;-13786.81;5021575;28;20379;-68
2021/09/10 05:11:16;;;;;;;108.50;31.70;;;;;;;18.28;100.00;-12050.78;5021443;28;20104;-68
2021/09/10 05:13:42;;;;;;;127.10;34.90;;;;;;;18.29;100.00;-11093.16;5021332;28;20017;-69
2021/09/10 05:16:07;;;;;;;116.37;33.60;;;;;;;18.30;100.00;-10419.66;5021007;28;20478;-69
2021/09/10 05:18:33;;;;;;;114.20;33.23;;;;;;;18.32;100.00;-9364.19;5021657;28;20060;-69
2021/09/10 05:20:59;;;;;;;121.17;33.63;;;;;;;18.43;100.00;-8178.22;5021325;28;20026;-69
2021/09/10 05:23:25;;;;;;;146.50;33.10;;;;;;;18.37;100.00;-7872.69;5021377;28;20033;-69
2021/09/10 05:25:50;;;;;;;134.13;33.70;;;;;;;18.34;100.00;-7392.94;5021128;28;20254;-69
2021/09/10 05:28:16;;;;;;;145.90;35.97;;;;;;;18.33;100.00;-7118.47;5021495;28;20029;-69
2021/09/10 05:30:41;;;;;;;158.63;37.93;;;;;;;18.33;100.00;-6969.72;5020764;28;20189;-69
2021/09/10 05:33:07;;;;;;;157.47;38.93;;;;;;;18.32;100.00;-6546.50;5021270;28;20049;-69
2021/09/10 05:35:35;;;;;;;128.03;36.63;;;;;;;18.31;100.00;-5794.84;5020966;28;20037;-69
2021/09/10 05:38:01;;;;;;;121.70;35.43;;;;;;;18.30;100.00;-5440.78;5020930;28;20238;-69
2021/09/10 05:40:26;;;;;;;98.33;27.80;;;;;;;18.17;100.00;-5963.66;5021157;28;20025;-69
2021/09/10 05:42:52;;;;;;;58.37;20.27;;;;;;;17.99;100.00;-7157.63;5021217;28;20026;-69
2021/09/10 05:45:17;;;;;;;54.07;19.30;;;;;;;17.92;100.00;-8100.16;5020673;28;20037;-69
2021/09/10 05:47:43;;;;;;;57.30;16.93;;;;;;;17.86;100.00;-8238.09;5020862;28;20241;-69
2021/09/10 05:50:09;;;;;;;38.77;13.37;;;;;;;17.71;100.00;-7535.16;5020824;28;20120;-69
2021/09/10 05:52:34;;;;;;;25.03;10.97;;;;;;;17.55;100.00;-7997.72;5021082;28;20532;-69
2021/09/10 05:55:00;;;;;;;31.87;12.07;;;;;;;17.61;100.00;-8054.41;5020632;28;20060;-69
2021/09/10 05:57:26;;;;;;;36.13;13.23;;;;;;;17.63;100.00;-6499.75;5020570;28;20033;-69
2021/09/10 05:59:51;;;;;;;30.63;11.43;;;;;;;17.60;100.00;-5269.59;5020343;28;20105;-69
2021/09/10 06:02:17;;;;;;;34.37;11.73;;;;;;;17.61;100.00;-4151.97;5020389;28;20075;-69
2021/09/10 06:04:43;;;;;;;37.37;12.87;;;;;;;17.60;100.00;-3228.84;5020637;28;20032;-69
2021/09/10 06:07:09;;;;;;;36.70;12.53;;;;;;;17.60;100.00;-2172.06;5020918;28;20044;-69
2021/09/10 06:09:34;;;;;;;35.27;13.23;;;;;;;17.64;100.00;-1607.47;5020513;28;20045;-69
2021/09/10 06:12:00;;;;;;;32.40;11.57;;;;;;;17.60;100.00;-1674.34;5020448;28;20022;-69
2021/09/10 06:14:25;;;;;;;38.10;12.13;;;;;;;17.64;100.00;-1530.53;5020295;28;20017;-69
2021/09/10 06:16:51;;;;;;;30.30;11.60;;;;;;;17.67;100.00;-1740.81;5020441;28;20229;-69
2021/09/10 06:19:17;;;;;;;30.83;11.67;;;;;;;17.67;100.00;-1961.50;5020153;28;20615;-69
2021/09/10 06:21:42;;;;;;;31.93;12.00;;;;;;;17.63;100.00;-2089.91;5020143;28;20053;-69
2021/09/10 06:24:08;;;;;;;35.57;12.07;;;;;;;17.66;100.00;-2400.25;5019940;28;20246;-69
2021/09/10 06:26:34;;;;;;;32.37;12.20;;;;;;;17.69;100.00;-3136.44;5020022;28;20036;-69
2021/09/10 06:28:59;;;;;;;30.43;12.60;;;;;;;17.70;100.00;-3349.31;5020231;28;20133;-69
2021/09/10 06:31:25;;;;;;;31.27;12.17;;;;;;;17.74;100.00;-3223.63;5020049;28;20135;-69
2021/09/10 06:33:50;;;;;;;32.20;12.63;;;;;;;17.73;100.00;-3387.78;5020500;28;20029;-69
2021/09/10 06:36:16;;;;;;;35.13;12.20;;;;;;;17.63;100.00;-4018.66;5020064;28;20059;-69
2021/09/10 06:38:45;;;;;;;29.97;12.23;;;;;;;17.64;100.00;-4318.66;5019840;28;20487;-69
2021/09/10 06:41:13;;;;;;;28.57;11.43;;;;;;;17.66;100.00;-4741.69;5019829;28;20030;-69
2021/09/10 06:43:39;;;;;;;32.13;12.00;;;;;;;17.69;100.00;-4969.91;5019898;28;20624;-69
2021/09/10 06:46:05;;;;;;;29.37;11.13;;;;;;;17.65;100.00;-5487.59;5019771;28;20025;-69
2021/09/10 06:48:30;;;;;;;24.93;11.43;;;;;;;17.64;100.00;-5861.75;5019668;28;20037;-69
2021/09/10 06:50:56;;;;;;;26.73;10.50;;;;;;;17.65;100.00;-6115.47;5019617;28;20052;-69
2021/09/10 06:53:22;;;;;;;28.60;11.73;;;;;;;17.70;100.00;-6341.19;5019764;28;20026;-69
2021/09/10 06:55:47;;;;;;;33.60;11.47;;;;;;;17.79;100.00;-6141.66;5019697;28;20379;-69
2021/09/10 06:58:13;;;;;;;36.23;12.30;;;;;;;17.80;100.00;-6421.06;5019438;28;20234;-69
2021/09/10 07:00:38;;;;;;;28.77;11.77;;;;;;;17.87;100.00;-6700.75;5018957;28;20112;-69
2021/09/10 07:03:04;;;;;;;27.57;11.40;;;;;;;17.97;100.00;-6996.00;5019317;28;20270;-69
2021/09/10 07:05:29;;;;;;;23.63;10.67;;;;;;;18.02;100.00;-7168.06;5018464;28;20029;-69
2021/09/10 07:07:55;;;;;;;22.23;10.10;;;;;;;18.08;100.00;-8252.56;5019629;28;20136;-69
2021/09/10 07:10:23;;;;;;;21.67;9.80;;;;;;;18.05;100.00;-9827.84;5019402;28;20161;-69
2021/09/10 07:12:49;;;;;;;23.10;10.20;;;;;;;18.14;100.00;-11286.06;5019249;28;20521;-69
2021/09/10 07:15:14;;;;;;;21.10;9.63;;;;;;;18.20;100.00;-12669.25;5019434;28;20029;-69
2021/09/10 07:17:40;;;;;;;21.73;10.37;;;;;;;18.28;100.00;-13727.53;5019504;28;20437;-69
2021/09/10 07:20:06;;;;;;;24.33;10.40;;;;;;;18.38;100.00;-15031.63;5019160;28;20439;-69
2021/09/10 07:22:31;;;;;;;20.93;10.17;;;;;;;18.43;100.00;-16314.34;5019480;28;20067;-69
2021/09/10 07:24:57;;;;;;;25.35;11.63;;;;;;;18.51;100.00;-17865.69;5019252;28;20029;-68
2021/09/10 07:27:23;;;;;;;23.27;13.13;;;;;;;18.54;100.00;-19341.44;5019465;28;20098;-68
2021/09/10 07:29:48;;;;;;;25.53;13.40;;;;;;;18.57;100.00;-19648.13;5019337;28;20030;-68
2021/09/10 07:32:14;;;;;;;23.87;12.13;;;;;;;18.66;100.00;-19650.59;5019227;28;20222;-68
2021/09/10 07:34:40;;;;;;;23.83;11.82;;;;;;;18.82;100.00;-19654.63;5019199;28;20103;-68
2021/09/10 07:37:05;;;;;;;22.83;11.60;;;;;;;18.89;100.00;-19656.31;5019285;28;20429;-69
2021/09/10 07:39:31;;;;;;;19.63;10.45;;;;;;;18.94;100.00;-19657.63;5018925;28;20103;-69
2021/09/10 07:41:57;;;;;;;19.92;11.32;;;;;;;19.04;100.00;-19660.22;5019468;28;20022;-68
2021/09/10 07:44:22;;;;;;;20.73;10.30;;;;;;;19.14;100.00;-19662.72;5019350;28;20371;-68
2021/09/10 07:46:52;;;;;;;19.83;10.35;;;;;;;19.25;100.00;-19665.69;5019225;28;20293;-69
2021/09/10 07:49:17;;;;;;;17.30;9.30;;;;;;;19.35;100.00;-19668.03;5019137;28;20067;-68
2021/09/10 07:51:43;;;;;;;18.90;9.68;;;;;;;19.38;100.00;-19668.81;5019620;28;20021;-68
2021/09/10 07:54:09;;;;;;;17.02;9.40;;;;;;;19.51;100.00;-19672.22;5019344;28;20030;-69
2021/09/10 07:56:34;;;;;;;15.80;8.68;;;;;;;19.58;100.00;-19674.16;5019150;28;20040;-68
2021/09/10 07:59:01;;;;;;;16.30;9.25;;;;;;;19.64;100.00;-19675.47;5019271;28;20021;-68
2021/09/10 08:01:26;;;;;;;15.63;8.90;;;;;;;19.80;100.00;-19679.63;5019081;28;20025;-68
2021/09/10 08:03:52;;;;;;;16.90;8.73;;;;;;;19.83;100.00;-19680.53;5018938;28;20380;-68
2021/09/10 08:06:18;;;;;;;14.60;7.88;;;;;;;19.91;100.00;-19682.50;5019478;28;20454;-68
2021/09/10 08:08:43;;;;;;;15.57;8.32;;;;;;;19.96;100.00;-19683.78;5019458;28;20429;-69
2021/09/10 08:11:10;;;;;;;15.13;8.35;;;;;;;19.95;100.00;-19683.41;5019307;28;20164;-69
2021/09/10 08:13:35;;;;;;;14.68;8.50;;;;;;;20.06;100.00;-19686.25;5019299;28;20029;-69
2021/09/10 08:16:01;;;;;;;16.55;9.65;;;;;;;20.11;100.00;-19687.56;5019163;28;20034;-68
2021/09/10 08:18:26;;;;;;;18.70;9.00;;;;;;;20.18;100.00;-19689.38;5022653;28;20025;-68
2021/09/10 08:20:56;;;;;;;16.88;9.38;;;;;;;20.22;100.00;-19690.28;5022465;28;20079;-68
2021/09/10 08:23:23;;;;;;;17.23;9.98;;;;;;;20.22;100.00;-19690.28;5022894;28;20202;-68
2021/09/10 08:25:49;;;;;;;23.13;9.80;;;;;;;20.28;100.00;-19691.97;5022376;28;20132;-69
2021/09/10 08:28:14;;;;;;;21.30;10.82;;;;;;;20.29;100.00;-19692.25;5022554;28;20666;-68
2021/09/10 08:30:40;;;;;;;20.90;10.27;;;;;;;20.42;100.00;-19695.63;5022559;28;20170;-68
2021/09/10 08:33:12;;;;;;;17.73;9.85;;;;;;;20.67;100.00;-19701.88;5022923;28;20033;-68
2021/09/10 08:35:38;;;;;;;20.13;9.70;;;;;;;20.82;100.00;-19705.75;5022378;28;20090;-68
2021/09/10 08:38:04;;;;;;;17.42;9.00;;;;;;;20.95;100.00;-19709.13;5022529;28;20056;-68
2021/09/10 08:40:32;;;;;;;15.73;8.77;;;;;;;21.12;100.00;-19713.44;5022138;28;20079;-68
2021/09/10 08:42:58;;;;;;;15.93;8.43;;;;;;;21.21;100.00;-19715.63;5022717;28;20593;-68
2021/09/10 08:45:27;;;;;;;13.48;8.45;;;;;;;21.55;100.00;-19724.47;5022395;28;20021;-68
2021/09/10 08:47:54;;;;;;;15.18;8.45;;;;;;;21.57;100.00;-19724.84;5022379;28;20025;-68
2021/09/10 08:50:20;;;;;;;18.77;8.65;;;;;;;21.64;100.00;-19726.66;5022102;28;20196;-68
2021/09/10 08:52:46;;;;;;;12.70;7.40;;;;;;;21.56;100.00;-19724.72;5022209;28;20021;-68
2021/09/10 08:55:13;;;;;;;12.95;7.25;;;;;;;21.38;100.00;-19720.06;5022021;28;20067;-68
2021/09/10 08:57:48;;;;;;;15.55;7.20;;;;;;;21.49;100.00;-19722.91;5021824;28;20056;-68
2021/09/10 09:00:16;;;;;;;12.77;6.65;;;;;;;21.47;100.00;-19722.38;5021876;28;20021;-68
2021/09/10 09:02:41;;;;;;;10.43;6.15;;;;;;;21.59;100.00;-19725.50;5021785;28;20041;-68
2021/09/10 09:05:08;;;;;;;11.98;7.00;;;;;;;21.73;100.00;-19728.88;5021737;28;20033;-68
2021/09/10 09:07:33;;;;;;;13.07;6.95;;;;;;;21.96;100.00;-19734.84;5021940;28;20021;-68
2021/09/10 09:10:00;;;;;;;16.02;7.18;;;;;;;22.09;100.00;-19738.22;5021587;28;20320;-68
2021/09/10 09:12:31;;;;;;;13.48;7.45;;;;;;;22.10;100.00;-19738.47;5022139;28;20148;-68
2021/09/10 09:15:05;;;;;;;18.40;7.78;;;;;;;22.32;100.00;-19744.06;5021390;28;20037;-68
2021/09/10 09:17:38;;;;;;;14.50;7.80;;;;;;;22.27;100.00;-19742.63;5021516;28;20033;-68
2021/09/10 09:20:45;;;;;;;14.52;6.20;;;;;;;22.26;100.00;-19742.38;5021449;28;20059;-68
2021/09/10 09:23:12;;;;;;;12.35;5.82;;;;;;;22.73;100.00;-19754.41;4921354;29;20054;-68
2021/09/10 09:25:45;;;;;;;11.25;6.38;;;;;;;22.75;100.00;-19754.94;4921154;29;20047;-66
2021/09/10 09:28:37;;;;;;;10.98;6.30;;;;;;;23.04;100.00;-19762.47;4920524;29;20055;-67
2021/09/10 09:31:05;;;;;;;12.65;7.25;;;;;;;23.78;100.00;-19781.09;4934567;29;20035;-67
2021/09/10 09:33:42;;;;;;;14.70;7.80;;;;;;;23.83;100.00;-19782.38;4940365;29;20035;-67
2021/09/10 09:36:15;;;;;;;12.85;7.45;;;;;;;23.88;100.00;-19783.81;4940377;29;20031;-69
2021/09/10 09:38:42;;;;;;;12.40;6.53;;;;;;;23.66;100.00;-19778.13;4940224;29;20070;-67
2021/09/10 09:41:11;;;;;;;12.70;7.25;;;;;;;24.16;100.00;-19790.78;4940241;29;20051;-67
2021/09/10 09:43:43;;;;;;;13.93;8.27;;;;;;;23.98;100.00;-19786.28;4940740;29;20390;-67
2021/09/10 09:46:11;;;;;;;17.15;9.65;;;;;;;23.32;100.00;-19769.56;4941073;29;20031;-67
2021/09/10 09:48:39;;;;;;;14.85;8.95;;;;;;;23.85;100.00;-19783.03;4939600;29;20387;-67
2021/09/10 09:51:06;;;;;;;18.25;9.23;;;;;;;23.91;100.00;-19784.47;4931098;29;20054;-67
2021/09/10 09:53:34;;;;;;;15.13;9.30;;;;;;;24.31;100.00;-19794.69;4921283;29;20055;-67
2021/09/10 09:56:01;;;;;;;16.10;9.15;;;;;;;24.16;100.00;-19790.78;4939256;28;20175;-68
2021/09/10 09:58:29;;;;;;;16.17;8.93;;;;;;;24.24;100.00;-19793.00;5041128;28;20024;-68
2021/09/10 10:00:56;;;;;;;18.35;9.68;;;;;;;23.69;100.00;-19778.91;5041415;28;20235;-68
2021/09/10 10:03:22;;;;;;;17.50;10.00;;;;;;;23.46;100.00;-19773.06;5040869;28;20060;-68
2021/09/10 10:06:14;;;;;;;18.67;10.25;;;;;;;23.46;100.00;-19772.94;5040674;28;20102;-68
2021/09/10 10:09:07;;;;;;;20.45;11.50;;;;;;;23.27;100.00;-19768.28;5040586;28;20025;-68
2021/09/10 10:11:50;;;;;;;18.33;10.73;;;;;;;22.96;100.00;-19760.25;5040829;28;20117;-68
2021/09/10 10:14:34;;;;;;;24.08;11.82;;;;;;;22.80;100.00;-19756.38;5041231;28;20116;-68
2021/09/10 10:17:03;;;;;;;22.92;12.38;;;;;;;22.83;100.00;-19756.88;5041268;28;20652;-68
2021/09/10 10:19:54;;;;;;;21.73;12.50;;;;;;;23.16;100.00;-19765.31;5036243;28;20581;-68
2021/09/10 10:22:35;;;;;;;25.08;12.88;;;;;;;23.39;100.00;-19771.38;5017643;28;20033;-68
2021/09/10 10:25:04;;;;;;;22.25;13.00;;;;;;;23.29;100.00;-19768.81;5020468;28;20083;-68
2021/09/10 10:27:45;;;;;;;25.33;13.10;;;;;;;23.59;100.00;-19776.44;5020253;28;20292;-68
2021/09/10 10:30:47;;;;;;;23.77;12.95;;;;;;;23.59;100.00;-19776.31;5020548;28;20353;-68
2021/09/10 10:33:29;;;;;;;;;;;;;;;23.62;100.00;-19777.09;5001903;28;20402;-68
2021/09/10 10:35:55;;;;;;;19.92;11.68;;;;;;;24.49;100.00;-19799.34;5020177;28;19913;-68
2021/09/10 10:38:20;;;;;;;22.65;12.55;;;;;;;24.27;100.00;-19793.78;5020356;28;20117;-68
2021/09/10 10:40:54;;;;;;;21.13;12.75;;;;;;;25.10;100.00;-19814.84;5020295;28;20040;-68
2021/09/10 10:43:32;;;;;;;21.13;11.70;;;;;;;25.31;100.00;-19820.00;5020060;28;20512;-68
2021/09/10 10:46:09;;;;;;;21.90;12.38;;;;;;;25.33;100.00;-19820.53;5020040;28;20129;-68
2021/09/10 10:48:44;;;;;;;19.58;11.52;;;;;;;25.81;100.00;-19832.78;5019842;28;20028;-68
2021/09/10 10:51:41;;;;;;;21.95;11.52;;;;;;;25.89;100.00;-19834.84;5019950;28;20056;-68
2021/09/10 10:54:11;;;;;;;19.23;11.18;;;;;;;26.08;100.00;-19839.63;5015746;28;20464;-68
2021/09/10 10:56:42;;;;;;;20.48;11.05;;;;;;;25.29;100.00;-19819.47;5020113;28;20571;-68
2021/09/10 10:59:34;;;;;;;20.20;11.52;;;;;;;25.31;100.00;-19820.00;5020199;28;20342;-69
2021/09/10 11:02:40;;;;;;;21.05;11.27;;;;;;;24.87;100.00;-19808.91;4999018;28;20437;-69
2021/09/10 11:05:13;;;;;;;20.70;11.70;;;;;;;25.52;100.00;-19825.41;5007930;28;20025;-69
2021/09/10 11:07:39;;;;;;;17.70;11.25;;;;;;;26.06;100.00;-19839.09;5020037;28;20036;-68